首页
METAR-TAF:

METAR-TAF

机场 :

阿尔皮纳, 密歇根州, 美国

纬度: 45-04-18N, 经度: 083-33-52W, 海拔: 210米

当前天气观测

该预报发布于36分钟前的12:54 UTC
风速3节,风向南转南东
温度 15°C
湿度 77%
气压 1015 hPa
能見度: 16.1公里
散云层高于3200英尺

METAR: KAPN 181254Z 15003KT 10SM SCT032 15/11 A2998 RMK AO2 SLP155 T01500106

时间: 09:30 (13:30 UTC)

预报

该预报发布于2小时和10分钟前的11:20 UTC
预报有效从18日的 12点(UTC)到 19日的 12点(UTC)
风速3节,风向多变
能見度: 10公里
多云层高于15000英尺
从 18日的 1700点(UTC)
风速4节,风向多变
能見度: 10公里
散云层高于10000英尺
从 18日的 1900点(UTC)
风速5节,风向东转东南
能見度: 10公里
多云层高于10000英尺
从 18日的 2000点(UTC)
风速4节,风向多变
能見度: 10公里
散云层高于6000英尺
多云层高于10000英尺
附近有阵雨
从 18日的 2300点(UTC)
风速3节,风向多变
能見度: 10公里
阴天层高于7000英尺
附近有阵雨
从 19日的 0500点(UTC)
风速节,风向
能見度: 10公里
多云层高于5000英尺
从 19日的 0900点(UTC)
风速节,风向
能見度: 9.7公里
阴天层高于3500英尺
轻雾
从 19日的 1100点(UTC)
风速节,风向
能見度: 8.0公里
多云层高于2200英尺
轻雾

TAF: KAPN 181120Z 1812/1912 VRB03KT P6SM BKN150 FM181700 VRB04KT P6SM SCT100 FM181900 12005KT P6SM BKN100 FM182000 VRB04KT P6SM VCSH SCT060 BKN100 FM182300 VRB03KT P6SM VCSH OVC070 FM190500 00000KT P6SM BKN050 FM190900 00000KT 6SM BR OVC035 FM191100 00000KT 5SM BR BKN022

超过4000个机场的气象观测和天气预报(METAR&TAF报告)。

可查询的气象台以黄色和红色小点在地图上表示。

将鼠标移到小点上方,可查看气象台名称。

然后点击查看天气观测和预报。

如需切换地图:点击带黑十字的绿色按钮放大地图;点击带横线的绿色按钮缩小地图;或者点击绿色箭头查看邻近地区的地图。


METAR-TAF: